Time;durP1;ratioP1;P1;durP2;ratioP2;P2;SDS_P1;SDS_P2;PMS_P1;PMS_P2;Temp;Humidity;BMP_temperature;BMP_pressure;BME280_temperature;BME280_humidity;BME280_pressure;Samples;Min_cycle;Max_cycle;Signal;HPM_P1;HPM_P2
2021/04/07 00:01:01;;;;;;;;;;;;;;;2.28;72.62;101165.63;5072625;28;19960;-76
2021/04/07 00:03:26;;;;;;;;;;;;;;;2.22;72.62;101159.97;5052110;28;19924;-78
2021/04/07 00:05:52;;;;;;;;;;;;;;;2.19;72.76;101162.31;5077239;28;19966;-76
2021/04/07 00:08:26;;;;;;;;;;;;;;;2.17;72.58;101167.19;5071811;28;19978;-76
2021/04/07 00:10:52;;;;;;;;;;;;;;;2.18;72.52;101166.13;5075364;28;19924;-76
2021/04/07 00:13:18;;;;;;;;;;;;;;;2.12;72.43;101173.34;5076058;28;19962;-76
2021/04/07 00:15:43;;;;;;;;;;;;;;;2.12;72.46;101172.50;5074855;28;19917;-77
2021/04/07 00:18:09;;;;;;;;;;;;;;;2.13;72.00;101185.13;5075496;28;19916;-76
2021/04/07 00:20:34;;;;;;;;;;;;;;;2.10;72.36;101185.59;5073171;28;19917;-77
2021/04/07 00:23:00;;;;;;;;;;;;;;;2.04;72.23;101187.31;5054949;28;19916;-76
2021/04/07 00:25:26;;;;;;;;;;;;;;;1.97;72.99;101192.81;5074992;28;19916;-76
2021/04/07 00:27:56;;;;;;;;;;;;;;;1.90;72.85;101192.03;5053920;28;20002;-76
2021/04/07 00:30:22;;;;;;;;;;;;;;;1.91;72.65;101199.19;5072501;28;19927;-76
2021/04/07 00:32:47;;;;;;;;;;;;;;;1.91;72.71;101206.56;5057977;28;19924;-76
2021/04/07 00:35:13;;;;;;;;;;;;;;;1.88;72.62;101201.53;5057629;28;19958;-76
2021/04/07 00:37:38;;;;;;;;;;;;;;;1.83;72.65;101207.66;5073549;28;20416;-76
2021/04/07 00:40:04;;;;;;;;;;;;;;;1.78;72.67;101208.34;5076615;28;20459;-76
2021/04/07 00:42:33;;;;;;;;;;;;;;;1.74;72.61;101208.97;5072592;28;20007;-76
2021/04/07 00:44:59;;;;;;;;;;;;;;;1.73;72.89;101212.78;5054126;28;19995;-76
2021/04/07 00:47:24;;;;;;;;;;;;;;;1.63;72.97;101209.66;5044180;28;19920;-76
2021/04/07 00:49:49;;;;;;;;;;;;;;;1.64;73.02;101214.06;5072014;28;19961;-76
2021/04/07 00:52:15;;;;;;;;;;;;;;;1.63;72.90;101215.16;5075104;28;19938;-76
2021/04/07 00:54:40;;;;;;;;;;;;;;;1.61;73.15;101220.81;5078079;28;19951;-76
2021/04/07 00:57:05;;;;;;;;;;;;;;;1.56;73.00;101210.53;5076782;28;19951;-76
2021/04/07 00:59:31;;;;;;;;;;;;;;;1.58;73.21;101214.94;5058292;28;19916;-76
2021/04/07 01:01:56;;;;;;;;;;;;;;;1.52;73.31;101217.50;5096541;28;19916;-77
2021/04/07 01:04:21;;;;;;;;;;;;;;;1.46;73.12;101212.91;5095167;28;20473;-76
2021/04/07 01:06:47;;;;;;;;;;;;;;;1.45;73.38;101211.22;5076671;28;20014;-76
2021/04/07 01:09:12;;;;;;;;;;;;;;;1.45;73.28;101221.31;5096224;28;19983;-76
2021/04/07 01:11:37;;;;;;;;;;;;;;;1.40;73.18;101216.50;5078350;28;20280;-77
2021/04/07 01:14:03;;;;;;;;;;;;;;;1.41;73.07;101223.66;5058376;28;19916;-77
2021/04/07 01:16:28;;;;;;;;;;;;;;;1.38;73.14;101218.59;5044874;28;19916;-76
2021/04/07 01:18:54;;;;;;;;;;;;;;;1.40;73.11;101229.34;5063269;28;19919;-76
2021/04/07 01:21:19;;;;;;;;;;;;;;;1.34;73.08;101231.06;5055431;28;19952;-76
2021/04/07 01:23:44;;;;;;;;;;;;;;;1.32;73.00;101227.69;5060281;28;19916;-76
2021/04/07 01:26:10;;;;;;;;;;;;;;;1.29;73.11;101230.84;5093420;28;19919;-76
2021/04/07 01:28:35;;;;;;;;;;;;;;;1.28;72.95;101231.91;5060103;28;19924;-76
2021/04/07 01:31:01;;;;;;;;;;;;;;;1.27;72.90;101236.53;5078117;28;19942;-76
2021/04/07 01:33:26;;;;;;;;;;;;;;;1.21;72.78;101239.31;5058749;28;19931;-77
2021/04/07 01:35:51;;;;;;;;;;;;;;;1.20;72.71;101234.88;5086987;28;20388;-78
2021/04/07 01:38:17;;;;;;;;;;;;;;;1.13;72.55;101239.53;5067665;28;19916;-76
2021/04/07 01:40:42;;;;;;;;;;;;;;;1.10;72.63;101238.88;5052811;28;19920;-76
2021/04/07 01:43:08;;;;;;;;;;;;;;;1.06;72.49;101234.91;5074574;28;20007;-76
2021/04/07 01:45:34;;;;;;;;;;;;;;;1.01;72.81;101242.91;5077747;28;19924;-76
2021/04/07 01:47:59;;;;;;;;;;;;;;;0.98;72.64;101243.34;5076670;28;19928;-76
2021/04/07 01:50:25;;;;;;;;;;;;;;;0.94;72.57;101242.06;5074537;28;19924;-77
2021/04/07 01:52:50;;;;;;;;;;;;;;;0.88;72.60;101246.50;5078556;28;19994;-76
2021/04/07 01:55:15;;;;;;;;;;;;;;;0.83;72.66;101248.19;5058460;28;19931;-76
2021/04/07 01:57:40;;;;;;;;;;;;;;;0.83;72.58;101245.44;5076853;28;19945;-76
2021/04/07 02:00:09;;;;;;;;;;;;;;;0.74;72.78;101249.47;5074851;28;20554;-76
2021/04/07 02:02:35;;;;;;;;;;;;;;;0.74;72.49;101252.19;5076536;28;19995;-76
2021/04/07 02:05:00;;;;;;;;;;;;;;;0.68;72.35;101253.03;5056217;28;19951;-76
2021/04/07 02:07:25;;;;;;;;;;;;;;;0.68;72.35;101250.31;5079672;28;19974;-76
2021/04/07 02:09:50;;;;;;;;;;;;;;;0.60;72.49;101252.19;5063383;28;19927;-76
2021/04/07 02:12:16;;;;;;;;;;;;;;;0.56;72.43;101256.41;5097729;28;19917;-76
2021/04/07 02:14:41;;;;;;;;;;;;;;;0.52;72.71;101254.28;5080985;28;19916;-76
2021/04/07 02:17:06;;;;;;;;;;;;;;;0.51;72.35;101253.47;5080166;28;19916;-76
2021/04/07 02:19:32;;;;;;;;;;;;;;;0.43;72.58;101261.88;5077785;28;19984;-78
2021/04/07 02:22:08;;;;;;;;;;;;;;;0.42;72.44;101257.47;5052575;28;19916;-76
2021/04/07 02:24:36;;;;;;;;;;;;;;;0.36;72.61;101259.13;5097525;28;20287;-76
2021/04/07 02:27:02;;;;;;;;;;;;;;;0.32;72.63;101259.75;5058940;28;19927;-76
2021/04/07 02:29:27;;;;;;;;;;;;;;;0.29;72.59;101262.91;5072822;28;19977;-76
2021/04/07 02:31:52;;;;;;;;;;;;;;;0.22;72.68;101258.28;5079174;28;20292;-77
2021/04/07 02:34:18;;;;;;;;;;;;;;;0.17;72.66;101260.78;5057921;28;19917;-76
2021/04/07 02:36:43;;;;;;;;;;;;;;;0.14;72.67;101263.06;5072600;28;19955;-76
2021/04/07 02:39:08;;;;;;;;;;;;;;;0.09;72.84;101263.69;5098792;28;19939;-76
2021/04/07 02:41:34;;;;;;;;;;;;;;;0.10;72.46;101257.19;5075144;28;19992;-76
2021/04/07 02:43:59;;;;;;;;;;;;;;;0.09;72.49;101265.59;5080072;28;19970;-76
2021/04/07 02:46:24;;;;;;;;;;;;;;;0.04;72.57;101271.66;5080515;28;20399;-76
2021/04/07 02:48:50;;;;;;;;;;;;;;;0.00;72.61;101273.13;5061102;28;20038;-76
2021/04/07 02:51:15;;;;;;;;;;;;;;;-0.01;72.68;101268.72;5094140;28;19924;-76
2021/04/07 02:53:40;;;;;;;;;;;;;;;-0.05;72.83;101278.38;5079077;28;20427;-76
2021/04/07 02:56:06;;;;;;;;;;;;;;;-0.10;72.77;101278.13;5063364;28;19955;-76
2021/04/07 02:58:31;;;;;;;;;;;;;;;-0.07;72.66;101277.72;5079087;28;19935;-76
2021/04/07 03:00:56;;;;;;;;;;;;;;;-0.11;72.76;101277.31;5079614;28;19951;-76
2021/04/07 03:03:22;;;;;;;;;;;;;;;-0.14;72.71;101282.31;5077330;28;19955;-76
2021/04/07 03:05:47;;;;;;;;;;;;;;;-0.21;72.72;101286.91;5098364;28;19970;-76
2021/04/07 03:08:13;;;;;;;;;;;;;;;-0.23;72.52;101287.09;5080614;28;19987;-76
2021/04/07 03:10:38;;;;;;;;;;;;;;;-0.23;72.50;101289.84;5044942;28;19942;-75
2021/04/07 03:13:03;;;;;;;;;;;;;;;-0.31;72.98;101290.84;5095000;28;20399;-76
2021/04/07 03:15:29;;;;;;;;;;;;;;;-0.33;72.71;101294.84;5098011;28;19912;-77
2021/04/07 03:17:54;;;;;;;;;;;;;;;-0.36;72.79;101293.38;5092999;28;19923;-76
2021/04/07 03:20:19;;;;;;;;;;;;;;;-0.41;72.75;101293.13;5079338;28;19924;-76
2021/04/07 03:22:45;;;;;;;;;;;;;;;-0.43;72.79;101300.66;5097344;28;19918;-76
2021/04/07 03:25:10;;;;;;;;;;;;;;;-0.50;72.88;101297.09;5077620;28;19959;-76
2021/04/07 03:27:36;;;;;;;;;;;;;;;-0.48;72.67;101297.72;5060545;28;19958;-76
2021/04/07 03:30:01;;;;;;;;;;;;;;;-0.49;72.62;101309.69;5059078;28;19955;-76
2021/04/07 03:32:27;;;;;;;;;;;;;;;-0.50;72.85;101321.66;5074420;28;19922;-77
2021/04/07 03:34:52;;;;;;;;;;;;;;;-0.53;72.75;101322.03;5046713;28;19946;-76
2021/04/07 03:37:17;;;;;;;;;;;;;;;-0.55;72.87;101318.66;5095058;28;19916;-76
2021/04/07 03:39:43;;;;;;;;;;;;;;;-0.58;72.97;101317.19;5078396;28;20411;-76
2021/04/07 03:42:08;;;;;;;;;;;;;;;-0.62;72.92;101313.16;5078224;28;19916;-77
2021/04/07 03:44:34;;;;;;;;;;;;;;;-0.61;72.88;101314.00;5079898;28;19916;-76
2021/04/07 03:46:59;;;;;;;;;;;;;;;-0.65;72.90;101320.91;5078086;28;19927;-77
2021/04/07 03:49:24;;;;;;;;;;;;;;;-0.63;72.70;101316.09;5045937;28;20284;-76
2021/04/07 03:51:50;;;;;;;;;;;;;;;-0.69;72.75;101317.75;5097451;28;19918;-76
2021/04/07 03:54:17;;;;;;;;;;;;;;;-0.70;72.77;101319.63;5096616;28;19916;-77
2021/04/07 03:56:42;;;;;;;;;;;;;;;-0.74;72.77;101326.53;5062537;28;20008;-76
2021/04/07 03:59:07;;;;;;;;;;;;;;;-0.76;72.93;101322.31;5076051;28;19912;-76
2021/04/07 04:01:33;;;;;;;;;;;;;;;-0.75;73.13;101330.31;5059826;28;20000;-76
2021/04/07 04:03:58;;;;;;;;;;;;;;;-0.75;73.28;101330.31;5077654;28;19916;-76
2021/04/07 04:06:23;;;;;;;;;;;;;;;-0.77;73.16;101332.38;5078410;28;20372;-77
2021/04/07 04:08:49;;;;;;;;;;;;;;;-0.80;73.23;101337.41;5076294;28;19931;-76
2021/04/07 04:11:14;;;;;;;;;;;;;;;-0.83;73.47;101332.34;5094480;28;19920;-77
2021/04/07 04:13:39;;;;;;;;;;;;;;;-0.84;73.42;101336.94;5078180;28;19920;-77
2021/04/07 04:16:05;;;;;;;;;;;;;;;-0.82;73.36;101340.31;5045007;28;19967;-77
2021/04/07 04:18:30;;;;;;;;;;;;;;;-0.84;73.54;101336.94;5061267;28;19916;-78
2021/04/07 04:20:55;;;;;;;;;;;;;;;-0.88;73.73;101341.09;5079339;28;19912;-77
2021/04/07 04:23:20;;;;;;;;;;;;;;;-0.88;73.75;101341.09;5078465;28;19916;-78
2021/04/07 04:25:46;;;;;;;;;;;;;;;-0.89;73.53;101344.88;5077014;28;20582;-77
2021/04/07 04:28:11;;;;;;;;;;;;;;;-0.89;73.68;101344.88;5084027;28;19921;-76
2021/04/07 04:30:36;;;;;;;;;;;;;;;-0.90;73.49;101340.47;5075193;28;19998;-76
2021/04/07 04:33:02;;;;;;;;;;;;;;;-0.93;73.46;101355.31;5094923;28;19981;-76
2021/04/07 04:35:27;;;;;;;;;;;;;;;-0.92;73.25;101362.50;5066293;28;19916;-76
2021/04/07 04:37:53;;;;;;;;;;;;;;;-0.91;73.54;101349.69;5057933;28;19920;-76
2021/04/07 04:40:18;;;;;;;;;;;;;;;-0.92;73.44;101356.16;5045363;28;19920;-77
2021/04/07 04:42:43;;;;;;;;;;;;;;;-0.92;73.42;101354.31;5078164;28;19977;-77
2021/04/07 04:45:09;;;;;;;;;;;;;;;-0.92;73.28;101367.06;5059602;28;19923;-77
2021/04/07 04:47:34;;;;;;;;;;;;;;;-0.95;73.33;101367.47;5077377;28;19928;-77
2021/04/07 04:50:00;;;;;;;;;;;;;;;-0.95;73.30;101364.75;5076420;28;19916;-77
2021/04/07 04:52:25;;;;;;;;;;;;;;;-0.99;73.09;101364.31;5095594;28;19912;-77
2021/04/07 04:54:50;;;;;;;;;;;;;;;-0.96;73.16;101366.63;5058502;28;19965;-77
2021/04/07 04:57:16;;;;;;;;;;;;;;;-1.02;72.98;101374.78;5043133;28;19916;-76
2021/04/07 04:59:41;;;;;;;;;;;;;;;-1.05;72.93;101372.44;5071212;28;19916;-77
2021/04/07 05:02:07;;;;;;;;;;;;;;;-1.05;72.90;101372.44;5059680;28;19912;-76
2021/04/07 05:04:32;;;;;;;;;;;;;;;-1.06;72.84;101373.47;5075915;28;19972;-77
2021/04/07 05:06:57;;;;;;;;;;;;;;;-1.09;72.82;101385.59;5061127;28;19920;-76
2021/04/07 05:09:22;;;;;;;;;;;;;;;-1.10;72.81;101372.19;5075113;28;19920;-77
2021/04/07 05:11:48;;;;;;;;;;;;;;;-1.13;72.86;101381.59;5075015;28;20376;-76
2021/04/07 05:14:13;;;;;;;;;;;;;;;-1.18;72.82;101384.06;5094701;28;19919;-76
2021/04/07 05:16:38;;;;;;;;;;;;;;;-1.19;72.80;101394.13;5078648;28;20632;-77
2021/04/07 05:19:04;;;;;;;;;;;;;;;-1.23;73.01;101391.97;5094151;28;19943;-77
2021/04/07 05:21:29;;;;;;;;;;;;;;;-1.23;72.88;101392.81;5060855;28;19955;-76
2021/04/07 05:23:55;;;;;;;;;;;;;;;-1.26;72.89;101397.81;5095420;28;19920;-76
2021/04/07 05:26:20;;;;;;;;;;;;;;;-1.28;72.79;101398.03;5073686;28;19918;-77
2021/04/07 05:28:46;;;;;;;;;;;;;;;-1.30;72.92;101405.53;5077661;28;20287;-76
2021/04/07 05:31:12;;;;;;;;;;;;;;;-1.29;72.78;101414.56;5078431;28;19947;-77
2021/04/07 05:33:38;;;;;;;;;;;;;;;-1.32;73.03;101409.50;5060467;28;19916;-76
2021/04/07 05:36:04;;;;;;;;;;;;;;;-1.34;72.92;101409.69;5091255;28;19923;-77
2021/04/07 05:38:29;;;;;;;;;;;;;;;-1.38;73.13;101411.13;5057702;28;19923;-77
2021/04/07 05:40:55;;;;;;;;;;;;;;;-1.37;72.83;101418.25;5058696;28;19916;-76
2021/04/07 05:43:21;;;;;;;;;;;;;;;-1.38;72.79;101422.84;5081160;28;19920;-76
2021/04/07 05:45:46;;;;;;;;;;;;;;;-1.37;72.72;101429.13;5082740;28;19924;-76
2021/04/07 05:48:12;;;;;;;;;;;;;;;-1.40;72.82;101440.44;5060498;28;19931;-77
2021/04/07 05:50:38;;;;;;;;;;;;;;;-1.39;72.97;101434.81;5081421;28;19916;-76
2021/04/07 05:53:03;;;;;;;;;;;;;;;-1.38;73.20;101438.38;5074372;28;19947;-76
2021/04/07 05:55:28;;;;;;;;;;;;;;;-1.33;73.10;101435.91;5073400;28;19966;-76
2021/04/07 05:58:00;;;;;;;;;;;;;;;-1.24;75.21;101436.63;5099532;28;19924;-76
2021/04/07 06:00:26;;;;;;;;;;;;;;;-1.06;75.75;101441.63;5063504;28;19919;-76
2021/04/07 06:02:56;;;;;;;;;;;;;;;-0.86;77.06;101455.44;5077653;28;19916;-76
2021/04/07 06:05:21;;;;;;;;;;;;;;;-0.69;76.76;101451.41;5070864;28;19916;-76
2021/04/07 06:07:47;;;;;;;;;;;;;;;-0.56;77.27;101454.25;5046118;28;20360;-76
2021/04/07 06:10:12;;;;;;;;;;;;;;;-0.42;77.23;101462.53;5078540;28;19924;-76
2021/04/07 06:12:38;;;;;;;;;;;;;;;-0.27;77.38;101461.41;5063900;28;19969;-76
2021/04/07 06:15:04;;;;;;;;;;;;;;;-0.15;77.07;101460.84;5063718;28;19916;-76
2021/04/07 06:17:29;;;;;;;;;;;;;;;-0.02;76.95;101456.31;5067750;28;19965;-76
2021/04/07 06:19:54;;;;;;;;;;;;;;;0.09;76.93;101459.53;5093710;28;19979;-76
2021/04/07 06:22:20;;;;;;;;;;;;;;;0.24;76.84;101465.69;5080334;28;19912;-76
2021/04/07 06:24:45;;;;;;;;;;;;;;;0.34;77.01;101470.78;5062660;28;20316;-76
2021/04/07 06:27:10;;;;;;;;;;;;;;;0.45;76.85;101470.22;5097207;28;20007;-76
2021/04/07 06:29:36;;;;;;;;;;;;;;;0.60;76.68;101465.44;5099568;28;19918;-75
2021/04/07 06:32:01;;;;;;;;;;;;;;;0.73;76.59;101475.56;5096495;28;19915;-76
2021/04/07 06:34:26;;;;;;;;;;;;;;;0.81;76.26;101472.66;5095059;28;19923;-77
2021/04/07 06:36:52;;;;;;;;;;;;;;;0.88;75.67;101483.59;5064384;28;19920;-75
2021/04/07 06:39:17;;;;;;;;;;;;;;;0.98;74.91;101484.06;5089202;28;19923;-76
2021/04/07 06:41:42;;;;;;;;;;;;;;;1.10;74.22;101487.03;5097553;28;19973;-76
2021/04/07 06:44:08;;;;;;;;;;;;;;;1.24;73.62;101483.25;5098194;28;19916;-76
2021/04/07 06:46:33;;;;;;;;;;;;;;;1.36;73.85;101497.16;5078951;28;20376;-75
2021/04/07 06:48:58;;;;;;;;;;;;;;;1.49;74.02;101499.91;5077554;28;19920;-75
2021/04/07 06:51:24;;;;;;;;;;;;;;;1.64;73.36;101501.59;5080249;28;19912;-75
2021/04/07 06:53:50;;;;;;;;;;;;;;;1.79;73.06;101502.22;5071146;28;20373;-76
2021/04/07 06:56:15;;;;;;;;;;;;;;;1.94;73.02;101500.09;5074316;28;20012;-75
2021/04/07 06:58:41;;;;;;;;;;;;;;;2.09;73.19;101508.09;5096423;28;19947;-75
2021/04/07 07:01:06;;;;;;;;;;;;;;;2.23;72.83;101508.91;5095503;28;19974;-76
2021/04/07 07:03:31;;;;;;;;;;;;;;;2.38;72.64;101508.66;5078735;28;20007;-76
2021/04/07 07:05:57;;;;;;;;;;;;;;;2.54;72.98;101516.41;5079919;28;20003;-76
2021/04/07 07:08:23;;;;;;;;;;;;;;;2.68;73.05;101515.31;5079327;28;19924;-75
2021/04/07 07:10:49;;;;;;;;;;;;;;;2.84;73.49;101516.72;5098287;28;20461;-76
2021/04/07 07:13:18;;;;;;;;;;;;;;;2.99;72.81;101519.16;5097290;28;19923;-78
2021/04/07 07:15:43;;;;;;;;;;;;;;;3.14;72.03;101522.44;5076747;28;20630;-77
2021/04/07 07:18:09;;;;;;;;;;;;;;;3.29;72.17;101524.91;5093821;28;19999;-79
2021/04/07 07:20:35;;;;;;;;;;;;;;;3.46;71.19;101527.97;5094305;28;19947;-77
2021/04/07 07:23:00;;;;;;;;;;;;;;;3.63;71.22;101528.25;5096757;28;19912;-78
2021/04/07 07:25:26;;;;;;;;;;;;;;;3.78;71.19;101530.66;5077817;28;20008;-78
2021/04/07 07:27:59;;;;;;;;;;;;;;;3.92;71.20;101528.66;5076905;28;19955;-78
2021/04/07 07:30:32;;;;;;;;;;;;;;;4.08;70.37;101530.00;5078813;28;19916;-78
2021/04/07 07:32:58;;;;;;;;;;;;;;;4.23;70.36;101533.22;5092571;28;19916;-78
2021/04/07 07:35:23;;;;;;;;;;;;;;;4.38;70.22;101535.63;5076802;28;19923;-78
2021/04/07 07:37:48;;;;;;;;;;;;;;;4.54;70.21;101531.41;5079788;28;19920;-78
2021/04/07 07:40:14;;;;;;;;;;;;;;;4.66;69.58;101533.16;5077238;28;19922;-78
2021/04/07 07:42:39;;;;;;;;;;;;;;;4.81;69.20;101540.19;5097052;28;19965;-77
2021/04/07 07:45:05;;;;;;;;;;;;;;;4.91;68.90;101540.50;5079905;28;20395;-77
2021/04/07 07:47:36;;;;;;;;;;;;;;;5.05;68.66;101542.00;5077544;28;19920;-77
2021/04/07 07:50:03;;;;;;;;;;;;;;;5.18;68.33;101540.13;5078177;28;19976;-77
2021/04/07 07:52:29;;;;;;;;;;;;;;;5.30;67.95;101530.84;5077415;28;20074;-77
2021/04/07 07:54:55;;;;;;;;;;;;;;;5.44;67.51;101533.41;5075829;28;19916;-77
2021/04/07 07:57:21;;;;;;;;;;;;;;;5.55;67.49;101538.13;5051788;28;20296;-77
2021/04/07 07:59:46;;;;;;;;;;;;;;;5.66;67.22;101537.31;5075635;28;19916;-77
2021/04/07 08:02:16;;;;;;;;;;;;;;;5.78;67.06;101540.91;5077528;28;19916;-77
2021/04/07 08:04:45;;;;;;;;;;;;;;;5.90;66.43;101540.09;5096559;28;19979;-77
2021/04/07 08:07:11;;;;;;;;;;;;;;;5.97;66.17;101525.16;5075311;28;20418;-78
2021/04/07 08:09:36;;;;;;;;;;;;;;;6.09;65.94;101532.59;5078768;28;19927;-77
2021/04/07 08:12:02;;;;;;;;;;;;;;;6.22;65.88;101535.13;5077053;28;19924;-77
2021/04/07 08:14:27;;;;;;;;;;;;;;;6.34;65.18;101540.63;5059509;28;19925;-77
2021/04/07 08:16:52;;;;;;;;;;;;;;;6.44;64.43;101540.88;5079241;28;19924;-77
2021/04/07 08:19:18;;;;;;;;;;;;;;;6.58;64.41;101535.94;5077128;28;19938;-77
2021/04/07 08:21:43;;;;;;;;;;;;;;;6.66;64.17;101536.41;5078290;28;19946;-77
2021/04/07 08:24:09;;;;;;;;;;;;;;;6.78;64.08;101541.88;5095077;28;19923;-77
2021/04/07 08:26:37;;;;;;;;;;;;;;;6.86;64.51;101541.50;5060167;28;19916;-77
2021/04/07 08:29:03;;;;;;;;;;;;;;;6.97;64.30;101544.50;5076586;28;20401;-77
2021/04/07 08:31:28;;;;;;;;;;;;;;;7.02;63.55;101541.81;5077992;28;19938;-78
2021/04/07 08:33:54;;;;;;;;;;;;;;;7.22;63.11;101553.28;5061262;28;19923;-78
2021/04/07 08:36:28;;;;;;;;;;;;;;;7.34;62.90;101551.28;5095703;28;19971;-77
2021/04/07 08:39:04;;;;;;;;;;;;;;;7.48;63.07;101553.75;5078816;28;20395;-80
2021/04/07 08:41:29;;;;;;;;;;;;;;;7.55;62.74;101552.53;5077056;28;19958;-78
2021/04/07 08:43:54;;;;;;;;;;;;;;;7.66;62.06;101556.31;5078181;28;19912;-77
2021/04/07 08:46:23;;;;;;;;;;;;;;;7.73;61.90;101554.22;5095719;28;19949;-77
2021/04/07 08:48:49;;;;;;;;;;;;;;;7.86;61.49;101563.31;5095018;28;19920;-78
2021/04/07 08:51:15;;;;;;;;;;;;;;;7.93;59.96;101550.97;5078841;28;19912;-77
2021/04/07 08:53:41;;;;;;;;;;;;;;;8.04;60.41;101554.75;5096084;28;20330;-77
2021/04/07 08:56:07;;;;;;;;;;;;;;;8.12;61.07;101559.84;5072323;28;19923;-77
2021/04/07 08:58:33;;;;;;;;;;;;;;;8.24;60.69;101557.00;5092457;28;20622;-77
2021/04/07 09:00:58;;;;;;;;;;;;;;;8.34;60.01;101564.63;5075887;28;19950;-77
2021/04/07 09:03:28;;;;;;;;;;;;;;;8.53;58.96;101568.00;5056326;28;19916;-77
2021/04/07 09:05:53;;;;;;;;;;;;;;;8.66;58.57;101571.22;5076695;28;19920;-77
2021/04/07 09:08:22;;;;;;;;;;;;;;;8.77;58.70;101565.81;5075702;28;19920;-77
2021/04/07 09:10:49;;;;;;;;;;;;;;;8.86;59.23;101564.28;5077933;28;19920;-77
2021/04/07 09:13:24;;;;;;;;;;;;;;;8.93;58.95;101563.00;5073544;28;19919;-77
2021/04/07 09:15:51;;;;;;;;;;;;;;;9.05;59.17;101564.78;5083269;28;19916;-77
2021/04/07 09:18:17;;;;;;;;;;;;;;;9.16;58.40;101572.13;5094455;28;19994;-77
2021/04/07 09:20:46;;;;;;;;;;;;;;;9.27;58.52;101575.88;5091699;28;20002;-77
2021/04/07 09:23:13;;;;;;;;;;;;;;;9.37;58.42;101568.50;5076836;28;19924;-77
2021/04/07 09:25:38;;;;;;;;;;;;;;;9.47;58.25;101566.94;5075170;28;19923;-77
2021/04/07 09:28:04;;;;;;;;;;;;;;;9.56;58.17;101566.22;5092694;28;19920;-77
2021/04/07 09:30:37;;;;;;;;;;;;;;;9.68;57.93;101568.00;5078184;28;19920;-77
2021/04/07 09:33:03;;;;;;;;;;;;;;;9.78;57.44;101562.56;5094153;28;19920;-77
2021/04/07 09:35:29;;;;;;;;;;;;;;;9.88;57.18;101565.41;5059611;28;20314;-77
2021/04/07 09:37:54;;;;;;;;;;;;;;;9.98;56.77;101567.44;5076943;28;19925;-77
2021/04/07 09:40:20;;;;;;;;;;;;;;;10.07;56.76;101560.31;5075652;28;19912;-77
2021/04/07 09:42:45;;;;;;;;;;;;;;;10.12;56.52;101567.84;5095734;28;20329;-78
2021/04/07 09:45:21;;;;;;;;;;;;;;;10.15;56.16;101572.84;5079996;28;19981;-78
2021/04/07 09:47:52;;;;;;;;;;;;;;;10.19;55.83;101569.28;5079996;28;20011;-78
2021/04/07 09:50:19;;;;;;;;;;;;;;;10.22;55.45;101566.00;5096107;28;19913;-77
2021/04/07 09:52:46;;;;;;;;;;;;;;;10.22;55.11;101573.44;5095721;28;20324;-77
2021/04/07 09:55:21;;;;;;;;;;;;;;;10.18;55.23;101564.00;5092554;28;20411;-77
2021/04/07 09:57:58;;;;;;;;;;;;;;;10.19;54.73;101562.88;5094767;28;19926;-77
2021/04/07 10:00:27;;;;;;;;;;;;;;;10.23;55.56;101572.38;5092542;28;20007;-77
2021/04/07 10:02:52;;;;;;;;;;;;;;;10.23;54.29;101572.38;5087957;28;19920;-77
2021/04/07 10:05:24;;;;;;;;;;;;;;;10.21;54.84;101574.56;5076966;28;20320;-77
2021/04/07 10:07:50;;;;;;;;;;;;;;;10.18;54.76;101564.81;5060388;28;19940;-77
2021/04/07 10:10:15;;;;;;;;;;;;;;;10.39;54.92;101565.00;5077117;28;20380;-77
2021/04/07 10:12:40;;;;;;;;;;;;;;;10.43;55.05;101557.81;5077463;28;20004;-78
2021/04/07 10:15:06;;;;;;;;;;;;;;;10.48;54.49;101567.03;5093566;28;19960;-77
2021/04/07 10:17:31;;;;;;;;;;;;;;;10.47;54.37;101568.13;5095808;28;19947;-77
2021/04/07 10:20:05;;;;;;;;;;;;;;;10.50;54.22;101562.03;5074234;28;19923;-77
2021/04/07 10:22:31;;;;;;;;;;;;;;;10.33;53.42;101566.91;5058133;28;19924;-77
2021/04/07 10:24:58;;;;;;;;;;;;;;;10.34;53.63;101568.59;5059927;28;20333;-77
2021/04/07 10:27:24;;;;;;;;;;;;;;;10.34;53.54;101565.81;5073618;28;20384;-77
2021/04/07 10:29:49;;;;;;;;;;;;;;;10.43;54.02;101553.09;5086926;28;19916;-77
2021/04/07 10:32:18;;;;;;;;;;;;;;;10.52;54.26;101558.97;5098064;28;19923;-77
2021/04/07 10:34:46;;;;;;;;;;;;;;;10.59;53.62;101558.75;5080138;28;19959;-78
2021/04/07 10:37:12;;;;;;;;;;;;;;;10.56;53.76;101551.81;5078318;28;19958;-77
2021/04/07 10:39:38;;;;;;;;;;;;;;;10.62;53.81;101564.63;5095717;28;19923;-77
2021/04/07 10:42:03;;;;;;;;;;;;;;;10.73;53.74;101562.72;5057943;28;19955;-77
2021/04/07 10:44:29;;;;;;;;;;;;;;;10.77;53.57;101563.03;5098212;28;19919;-78
2021/04/07 10:46:55;;;;;;;;;;;;;;;10.67;53.22;101561.00;5059668;28;19920;-77
2021/04/07 10:49:20;;;;;;;;;;;;;;;10.51;52.07;101558.16;5096755;28;19920;-78
2021/04/07 10:51:56;;;;;;;;;;;;;;;10.39;51.66;101549.19;5062111;28;20016;-78
2021/04/07 10:54:23;;;;;;;;;;;;;;;10.17;51.48;101553.97;5097614;28;19922;-78
2021/04/07 10:56:49;;;;;;;;;;;;;;;10.19;51.96;101549.84;5092902;28;20364;-77
2021/04/07 10:59:16;;;;;;;;;;;;;;;10.21;52.39;101557.91;5093692;28;19916;-78
2021/04/07 11:01:41;;;;;;;;;;;;;;;10.30;52.87;101550.78;5098507;28;19959;-78
2021/04/07 11:04:13;;;;;;;;;;;;;;;10.36;52.76;101551.66;5079355;28;19916;-77
2021/04/07 11:06:38;;;;;;;;;;;;;;;10.48;53.32;101546.75;5077291;28;19958;-77
2021/04/07 11:09:04;;;;;;;;;;;;;;;10.60;53.04;101547.38;5079139;28;19964;-78
2021/04/07 11:11:29;;;;;;;;;;;;;;;10.70;52.66;101541.03;5098133;28;19920;-77
2021/04/07 11:13:55;;;;;;;;;;;;;;;10.85;53.06;101543.88;5062237;28;19916;-78
2021/04/07 11:16:29;;;;;;;;;;;;;;;10.98;52.74;101542.56;5063109;28;19913;-78
2021/04/07 11:18:54;;;;;;;;;;;;;;;11.07;52.22;101540.94;5095778;28;19916;-78
2021/04/07 11:21:19;;;;;;;;;;;;;;;11.18;52.31;101537.06;5059635;28;19951;-78
2021/04/07 11:23:45;;;;;;;;;;;;;;;11.30;52.38;101547.94;5079668;28;19916;-78
2021/04/07 11:26:10;;;;;;;;;;;;;;;11.41;52.07;101535.72;5097147;28;19954;-78
2021/04/07 11:28:35;;;;;;;;;;;;;;;11.51;51.80;101542.44;5049836;28;19916;-78
2021/04/07 11:31:03;;;;;;;;;;;;;;;11.56;51.31;101536.88;5078453;28;19927;-78
2021/04/07 11:38:45;;;;;;;;;;;;;;;11.51;49.21;101534.09;5070819;28;20386;-78
2021/04/07 11:44:24;;;;;;;;;;;;;;;11.55;49.29;101535.22;5095883;28;19912;-79
2021/04/07 11:46:24;;;;;;;;;;;;;;;11.57;49.02;101533.00;5095017;28;20364;-79
2021/04/07 11:48:49;;;;;;;;;;;;;;;11.53;48.87;101534.63;5062467;28;19974;-78
2021/04/07 11:51:14;;;;;;;;;;;;;;;11.65;48.90;101537.19;5094793;28;19923;-78
2021/04/07 11:53:40;;;;;;;;;;;;;;;11.72;48.60;101524.66;5076252;28;20025;-78
2021/04/07 11:56:05;;;;;;;;;;;;;;;11.80;48.84;101526.06;5078803;28;19916;-78
2021/04/07 11:58:31;;;;;;;;;;;;;;;11.85;48.86;101532.50;5074689;28;19916;-77
2021/04/07 12:00:56;;;;;;;;;;;;;;;11.81;48.91;101528.56;5075330;28;19930;-82
2021/04/07 12:03:21;;;;;;;;;;;;;;;11.72;48.40;101537.72;5062913;28;19948;-74
2021/04/07 12:05:47;;;;;;;;;;;;;;;11.80;49.11;101526.88;5077570;28;19966;-74
2021/04/07 12:08:12;;;;;;;;;;;;;;;11.89;50.23;101526.38;5089648;28;19977;-74
2021/04/07 12:10:38;;;;;;;;;;;;;;;12.00;50.60;101528.03;5096010;28;19969;-74
2021/04/07 12:13:04;;;;;;;;;;;;;;;12.01;49.77;101532.50;5094177;28;19920;-75
2021/04/07 12:15:29;;;;;;;;;;;;;;;11.91;49.13;101526.94;5097376;28;19938;-74
2021/04/07 12:17:56;;;;;;;;;;;;;;;11.99;48.31;101529.16;5094661;28;19979;-74
2021/04/07 12:20:21;;;;;;;;;;;;;;;11.99;48.26;101527.19;5086352;28;19923;-74
2021/04/07 12:22:49;;;;;;;;;;;;;;;11.94;48.76;101526.38;5096972;28;19913;-75
2021/04/07 12:25:14;;;;;;;;;;;;;;;11.88;48.68;101521.91;5093966;28;20275;-74
2021/04/07 12:27:40;;;;;;;;;;;;;;;11.85;48.90;101526.91;5096529;28;19970;-74
2021/04/07 12:30:06;;;;;;;;;;;;;;;11.75;48.96;101523.25;5092554;28;19942;-74
2021/04/07 12:32:32;;;;;;;;;;;;;;;11.72;49.40;101519.09;5094534;28;19916;-75
2021/04/07 12:34:58;;;;;;;;;;;;;;;11.76;49.79;101520.22;5088143;28;19916;-75
2021/04/07 12:37:25;;;;;;;;;;;;;;;11.81;49.69;101514.66;5078311;28;19927;-74
2021/04/07 12:39:51;;;;;;;;;;;;;;;11.95;48.90;101512.19;5076708;28;19916;-80
2021/04/07 12:42:17;;;;;;;;;;;;;;;12.07;49.55;101509.94;5059399;28;19939;-79